Time;durP1;ratioP1;P1;durP2;ratioP2;P2;SDS_P1;SDS_P2;PMS_P1;PMS_P2;Temp;Humidity;BMP_temperature;BMP_pressure;BME280_temperature;BME280_humidity;BME280_pressure;Samples;Min_cycle;Max_cycle;Signal;HPM_P1;HPM_P2
2023/07/27 00:00:19;;;;;;;5.90;2.20;;;;;;;11.43;100.00;100569.16;5051776;28;20129;-61
2023/07/27 00:02:45;;;;;;;3.33;2.30;;;;;;;11.40;100.00;100568.66;5052125;28;20049;-61
2023/07/27 00:05:13;;;;;;;3.95;2.72;;;;;;;11.36;100.00;100570.84;5051707;28;20048;-61
2023/07/27 00:07:39;;;;;;;3.17;2.08;;;;;;;11.32;100.00;100571.34;5051360;28;20090;-60
2023/07/27 00:10:07;;;;;;;4.82;2.60;;;;;;;11.32;100.00;100563.31;5051723;28;20493;-61
2023/07/27 00:12:34;;;;;;;3.10;2.15;;;;;;;11.27;100.00;100569.16;5050302;28;20049;-62
2023/07/27 00:15:00;;;;;;;4.63;2.45;;;;;;;11.27;100.00;100569.16;5052329;28;20106;-62
2023/07/27 00:17:27;;;;;;;2.80;2.38;;;;;;;11.27;100.00;100569.16;5052151;28;20130;-61
2023/07/27 00:19:54;;;;;;;4.68;2.70;;;;;;;11.22;100.00;100574.22;5051798;28;20044;-60
2023/07/27 00:22:21;;;;;;;3.67;2.58;;;;;;;11.18;100.00;100568.34;5051791;28;20049;-60
2023/07/27 00:24:47;;;;;;;4.32;2.40;;;;;;;11.14;100.00;100571.53;5051853;28;20114;-61
2023/07/27 00:27:14;;;;;;;4.78;3.05;;;;;;;11.10;100.00;100562.97;5051836;28;20045;-61
2023/07/27 00:29:40;;;;;;;4.70;2.70;;;;;;;11.02;100.00;100567.47;5051320;28;20045;-61
2023/07/27 00:32:07;;;;;;;4.35;2.92;;;;;;;11.01;100.00;100561.28;5051484;28;20061;-60
2023/07/27 00:34:34;;;;;;;5.85;2.55;;;;;;;11.01;100.00;100561.28;5051623;28;20067;-61
2023/07/27 00:37:00;;;;;;;3.92;2.67;;;;;;;10.97;100.00;100562.63;5051999;28;20103;-61
2023/07/27 00:39:27;;;;;;;4.88;2.75;;;;;;;10.96;100.00;100560.94;5051203;28;20463;-62
2023/07/27 00:41:53;;;;;;;4.63;3.08;;;;;;;10.91;100.00;100565.97;5049286;28;20120;-61
2023/07/27 00:44:21;;;;;;;5.57;2.65;;;;;;;10.87;100.00;100562.78;5049854;28;20500;-62
2023/07/27 00:46:47;;;;;;;6.18;2.45;;;;;;;10.82;100.00;100572.31;5050461;28;20041;-61
2023/07/27 00:49:14;;;;;;;4.28;3.10;;;;;;;10.80;100.00;100563.63;5050410;28;20045;-61
2023/07/27 00:51:43;;;;;;;5.45;2.80;;;;;;;10.81;100.00;100560.75;5050718;28;20152;-60
2023/07/27 00:54:11;;;;;;;4.93;2.53;;;;;;;10.74;100.00;100555.19;5051261;28;20052;-61
2023/07/27 00:56:38;;;;;;;4.88;3.47;;;;;;;10.74;100.00;100559.75;5050329;28;20115;-61
2023/07/27 00:59:06;;;;;;;4.45;3.10;;;;;;;10.69;100.00;100557.56;5050320;28;20111;-60
2023/07/27 01:01:34;;;;;;;7.28;3.45;;;;;;;10.69;100.00;100562.94;5049463;28;20171;-59
2023/07/27 01:04:01;;;;;;;7.47;2.92;;;;;;;10.64;100.00;100556.38;5051336;28;20049;-62
2023/07/27 01:07:23;;;;;;;4.75;3.42;;;;;;;10.65;100.00;100558.91;5050725;28;20107;-62
2023/07/27 01:09:50;;;;;;;;;;;;;;;10.65;100.00;100550.84;5050223;28;20443;-62
2023/07/27 01:12:22;;;;;;;5.03;2.90;;;;;;;10.61;100.00;100548.63;5049570;28;19921;-60
2023/07/27 01:15:06;;;;;;;9.45;4.43;;;;;;;10.63;100.00;100543.97;5049811;28;20530;-61
2023/07/27 01:17:56;;;;;;;4.07;2.85;;;;;;;10.52;100.00;100545.13;5050707;28;20126;-60
2023/07/27 01:21:12;;;;;;;5.65;2.58;;;;;;;10.47;100.00;100534.81;5049130;28;20072;-61
2023/07/27 01:24:02;;;;;;;6.15;2.55;;;;;;;10.44;100.00;100537.00;5029521;28;20057;-61
2023/07/27 01:26:49;;;;;;;5.20;3.47;;;;;;;10.42;100.00;100542.53;5034228;28;20061;-60
2023/07/27 01:29:37;;;;;;;4.50;3.45;;;;;;;10.41;100.00;100543.56;5021309;28;20460;-61
2023/07/27 01:32:07;;;;;;;4.70;2.75;;;;;;;10.38;100.00;100538.50;5033571;28;20042;-60
2023/07/27 01:34:42;;;;;;;5.55;3.20;;;;;;;10.31;100.00;100540.16;5030674;28;20045;-61
2023/07/27 01:37:13;;;;;;;5.15;3.15;;;;;;;10.30;100.00;100530.44;5030445;28;20057;-60
2023/07/27 01:39:47;;;;;;;6.97;4.20;;;;;;;10.31;100.00;100532.13;5030413;28;20049;-61
2023/07/27 01:42:15;;;;;;;5.90;3.95;;;;;;;10.31;100.00;100525.94;5029796;28;20358;-61
2023/07/27 01:44:44;;;;;;;4.65;3.42;;;;;;;10.26;100.00;100529.91;5029893;28;20102;-61
2023/07/27 01:47:11;;;;;;;4.53;3.00;;;;;;;10.25;100.00;100530.09;5029874;28;20087;-62
2023/07/27 01:49:39;;;;;;;4.03;3.05;;;;;;;10.20;100.00;100532.41;5030025;28;20485;-62
2023/07/27 01:52:08;;;;;;;3.85;3.08;;;;;;;10.16;100.00;100523.00;5029768;28;20049;-62
2023/07/27 01:54:35;;;;;;;5.00;3.10;;;;;;;10.12;100.00;100529.69;5029559;28;20045;-60
2023/07/27 01:57:04;;;;;;;5.18;2.92;;;;;;;10.03;100.00;100537.72;5028449;28;20163;-64
2023/07/27 01:59:32;;;;;;;3.88;3.15;;;;;;;9.98;100.00;100531.16;5028994;28;20098;-62
2023/07/27 02:02:01;;;;;;;4.03;3.35;;;;;;;9.91;100.00;100525.59;5033257;28;20163;-61
2023/07/27 02:04:31;;;;;;;5.10;3.40;;;;;;;9.91;100.00;100525.59;5029647;28;20041;-61
2023/07/27 02:06:57;;;;;;;5.22;3.65;;;;;;;9.84;100.00;100521.88;5031973;28;20037;-62
2023/07/27 02:09:25;;;;;;;6.40;4.53;;;;;;;9.81;100.00;100524.88;5029290;28;20045;-62
2023/07/27 02:11:57;;;;;;;6.13;3.88;;;;;;;9.80;100.00;100517.84;5029118;28;20049;-61
2023/07/27 02:14:39;;;;;;;5.35;3.55;;;;;;;9.74;100.00;100519.31;5029080;28;20055;-60
2023/07/27 02:17:23;;;;;;;5.65;3.55;;;;;;;9.71;100.00;100518.78;5028795;28;20054;-61
2023/07/27 02:19:56;;;;;;;5.22;3.40;;;;;;;9.73;100.00;100527.53;5029197;28;20060;-61
2023/07/27 02:22:24;;;;;;;5.38;3.80;;;;;;;9.73;100.00;100528.38;5024243;28;20053;-62
2023/07/27 02:24:51;;;;;;;4.55;3.47;;;;;;;9.71;100.00;100533.03;5009690;28;20061;-61
2023/07/27 02:27:17;;;;;;;4.43;3.65;;;;;;;9.75;100.00;100530.88;5009882;28;20053;-61
2023/07/27 02:29:45;;;;;;;7.57;3.80;;;;;;;9.75;100.00;100530.88;5010005;28;20513;-61
2023/07/27 02:32:12;;;;;;;5.85;3.60;;;;;;;9.69;100.00;100527.00;5009299;28;20054;-63
2023/07/27 02:34:38;;;;;;;4.85;3.90;;;;;;;9.69;100.00;100528.84;5009670;28;20056;-60
2023/07/27 02:37:05;;;;;;;6.30;3.63;;;;;;;9.61;100.00;100518.06;5009523;28;20078;-62
2023/07/27 02:39:32;;;;;;;7.85;4.10;;;;;;;9.60;100.00;100517.22;5010185;28;20166;-62
2023/07/27 02:41:59;;;;;;;5.95;3.92;;;;;;;9.60;100.00;100516.41;5025168;28;20068;-61
2023/07/27 02:44:25;;;;;;;5.82;4.18;;;;;;;9.60;100.00;100516.41;5029346;28;20490;-61
2023/07/27 02:46:53;;;;;;;6.72;4.82;;;;;;;9.61;100.00;100518.06;5029106;28;20045;-60
2023/07/27 02:49:19;;;;;;;8.23;3.83;;;;;;;9.59;100.00;100515.56;5029249;28;20551;-63
2023/07/27 02:51:46;;;;;;;5.40;3.80;;;;;;;9.62;100.00;100514.41;5029605;28;20103;-61
2023/07/27 02:54:12;;;;;;;4.82;3.78;;;;;;;9.56;100.00;100513.19;5040153;28;20144;-61
2023/07/27 02:56:39;;;;;;;4.25;3.55;;;;;;;9.56;100.00;100510.53;5048907;28;20049;-61
2023/07/27 02:59:05;;;;;;;6.00;4.03;;;;;;;9.49;100.00;100509.47;5048564;28;20052;-62
2023/07/27 03:01:32;;;;;;;6.70;4.40;;;;;;;9.49;100.00;100520.19;5048899;28;20072;-63
2023/07/27 03:03:59;;;;;;;6.15;4.00;;;;;;;9.48;100.00;100522.03;5049396;28;20056;-60
2023/07/27 03:06:25;;;;;;;4.95;3.72;;;;;;;9.42;100.00;100525.34;5049184;28;20068;-61
2023/07/27 03:08:52;;;;;;;8.45;4.13;;;;;;;9.44;100.00;100512.66;5052850;28;20052;-62
2023/07/27 03:11:18;;;;;;;8.55;4.07;;;;;;;9.39;100.00;100514.94;5051689;28;20459;-61
2023/07/27 03:13:45;;;;;;;7.20;4.03;;;;;;;9.39;100.00;100514.94;5053037;28;20067;-61
2023/07/27 03:16:11;;;;;;;4.72;3.60;;;;;;;9.32;100.00;100514.72;5053016;28;20053;-62
2023/07/27 03:18:38;;;;;;;10.07;4.70;;;;;;;9.28;100.00;100517.88;5052886;28;20099;-62
2023/07/27 03:21:05;;;;;;;7.53;4.03;;;;;;;9.27;100.00;100518.88;5052799;28;20053;-63
2023/07/27 03:23:33;;;;;;;4.95;4.10;;;;;;;9.29;100.00;100524.91;5052926;28;20107;-63
2023/07/27 03:26:00;;;;;;;8.45;5.00;;;;;;;9.32;100.00;100528.09;5053181;28;20072;-61
2023/07/27 03:28:27;;;;;;;8.20;4.50;;;;;;;9.33;100.00;100523.59;5037021;28;20042;-60
2023/07/27 03:30:53;;;;;;;6.60;4.57;;;;;;;9.30;100.00;100521.22;5032487;28;20103;-61
2023/07/27 03:33:20;;;;;;;5.30;4.38;;;;;;;9.23;100.00;100523.69;5032713;28;20053;-61
2023/07/27 03:35:46;;;;;;;10.10;5.10;;;;;;;9.24;100.00;100522.72;5032834;28;20065;-60
2023/07/27 03:38:13;;;;;;;7.55;4.63;;;;;;;9.25;100.00;100523.53;5032593;28;20054;-60
2023/07/27 03:40:41;;;;;;;8.45;4.80;;;;;;;9.25;100.00;100518.19;5032673;28;20500;-60
2023/07/27 03:43:08;;;;;;;12.77;4.80;;;;;;;9.25;100.00;100511.00;5032747;28;20495;-61
2023/07/27 03:45:34;;;;;;;7.65;4.63;;;;;;;9.31;100.00;100512.22;5031348;28;20049;-61
2023/07/27 03:48:01;;;;;;;6.25;4.80;;;;;;;9.28;100.00;100504.50;5033139;28;20424;-60
2023/07/27 03:50:27;;;;;;;14.80;5.03;;;;;;;9.28;100.00;100507.16;5032490;28;20409;-62
2023/07/27 03:52:54;;;;;;;6.85;4.47;;;;;;;9.25;100.00;100508.31;5032531;28;20061;-62
2023/07/27 03:55:20;;;;;;;5.97;4.55;;;;;;;9.30;100.00;100507.84;5032628;28;20298;-63
2023/07/27 03:57:47;;;;;;;9.50;5.18;;;;;;;9.31;100.00;100496.16;5032269;28;20539;-62
2023/07/27 04:00:15;;;;;;;8.70;5.32;;;;;;;9.35;100.00;100502.88;5031669;28;20102;-61
2023/07/27 04:02:42;;;;;;;7.70;5.20;;;;;;;9.38;100.00;100501.72;5032281;28;20100;-59
2023/07/27 04:05:09;;;;;;;9.73;5.75;;;;;;;9.36;100.00;100493.81;5031861;28;20057;-61
2023/07/27 04:07:35;;;;;;;8.65;5.20;;;;;;;9.36;100.00;100488.47;5031665;28;20074;-62
2023/07/27 04:10:02;;;;;;;8.95;4.68;;;;;;;9.41;100.00;100498.72;5032018;28;20057;-61
2023/07/27 04:12:28;;;;;;;9.52;4.90;;;;;;;9.41;100.00;100496.88;5031994;28;20045;-62
2023/07/27 04:14:56;;;;;;;8.93;4.80;;;;;;;9.46;100.00;100491.03;5031066;28;20107;-61
2023/07/27 04:17:22;;;;;;;7.50;5.07;;;;;;;9.45;100.00;100500.91;5031751;28;20487;-61
2023/07/27 04:19:49;;;;;;;8.73;5.13;;;;;;;9.49;100.00;100493.41;5031097;28;20064;-60
2023/07/27 04:22:15;;;;;;;8.57;5.50;;;;;;;9.44;100.00;100493.03;5031827;28;20049;-62
2023/07/27 04:24:44;;;;;;;12.65;5.00;;;;;;;9.46;100.00;100496.41;5032092;28;20049;-61
2023/07/27 04:27:12;;;;;;;6.03;4.88;;;;;;;9.51;100.00;100494.09;5032011;28;20053;-61
2023/07/27 04:29:39;;;;;;;9.23;5.07;;;;;;;9.53;100.00;100490.25;5031886;28;20049;-61
2023/07/27 04:32:07;;;;;;;7.50;5.43;;;;;;;9.60;100.00;100484.25;5031826;28;20497;-60
2023/07/27 04:34:34;;;;;;;8.23;4.72;;;;;;;9.61;100.00;100491.28;5031950;28;20045;-61
2023/07/27 04:37:00;;;;;;;8.40;5.30;;;;;;;9.63;100.00;100489.31;5032288;28;20049;-62
2023/07/27 04:39:27;;;;;;;8.73;4.72;;;;;;;9.69;100.00;100489.50;5031565;28;20090;-60
2023/07/27 04:41:54;;;;;;;8.00;4.65;;;;;;;9.74;100.00;100497.03;5031467;28;20045;-60
2023/07/27 04:44:20;;;;;;;7.13;4.85;;;;;;;9.71;100.00;100487.47;5031730;28;20053;-61
2023/07/27 04:46:47;;;;;;;6.68;5.63;;;;;;;9.77;100.00;100491.38;5031592;28;20049;-60
2023/07/27 04:49:13;;;;;;;6.20;4.50;;;;;;;9.78;100.00;100490.38;5031475;28;20486;-62
2023/07/27 04:51:40;;;;;;;6.10;4.70;;;;;;;9.77;100.00;100489.53;5031629;28;20096;-60
2023/07/27 04:54:06;;;;;;;8.20;4.93;;;;;;;9.77;100.00;100486.84;5029912;28;20095;-61
2023/07/27 04:56:33;;;;;;;8.23;4.72;;;;;;;9.83;100.00;100480.03;5031165;28;20103;-62
2023/07/27 04:59:00;;;;;;;8.70;5.20;;;;;;;9.91;100.00;100485.41;5030860;28;20136;-61
2023/07/27 05:01:27;;;;;;;6.18;4.65;;;;;;;9.92;100.00;100480.88;5030712;28;20099;-60
2023/07/27 05:03:53;;;;;;;12.60;4.82;;;;;;;9.95;100.00;100481.38;5031046;28;20124;-62
2023/07/27 05:06:20;;;;;;;7.82;4.88;;;;;;;9.91;100.00;100488.09;5029455;28;20059;-61
2023/07/27 05:08:46;;;;;;;7.82;4.55;;;;;;;9.92;100.00;100487.06;5031044;28;20045;-60
2023/07/27 05:11:13;;;;;;;9.70;4.80;;;;;;;10.04;100.00;100483.09;5046120;28;20115;-61
2023/07/27 05:13:40;;;;;;;6.57;4.53;;;;;;;10.13;100.00;100475.94;5030955;28;20049;-60
2023/07/27 05:16:07;;;;;;;9.30;4.40;;;;;;;10.10;100.00;100487.00;5030472;28;20053;-61
2023/07/27 05:18:33;;;;;;;6.82;4.60;;;;;;;10.13;100.00;100485.81;5030864;28;20072;-62
2023/07/27 05:21:01;;;;;;;9.98;4.03;;;;;;;10.12;100.00;100490.31;5044984;28;20402;-60
2023/07/27 05:23:27;;;;;;;11.77;4.20;;;;;;;10.13;100.00;100484.00;5030403;28;20091;-61
2023/07/27 05:25:54;;;;;;;10.75;4.93;;;;;;;10.16;100.00;100490.84;5030663;28;20037;-60
2023/07/27 05:28:20;;;;;;;8.77;4.05;;;;;;;10.18;100.00;100486.16;5028938;28;20414;-62
2023/07/27 05:30:47;;;;;;;8.23;4.43;;;;;;;10.25;100.00;100482.66;5029680;28;20045;-60
2023/07/27 05:33:14;;;;;;;5.75;4.30;;;;;;;10.31;100.00;100485.72;5029797;28;20103;-60
2023/07/27 05:35:40;;;;;;;6.97;4.40;;;;;;;10.37;100.00;100482.34;5019815;28;20463;-60
2023/07/27 05:38:07;;;;;;;5.32;3.90;;;;;;;10.48;100.00;100482.88;5010115;28;20053;-60
2023/07/27 05:40:37;;;;;;;8.52;4.38;;;;;;;10.68;100.00;100477.22;5010188;28;20489;-62
2023/07/27 05:43:04;;;;;;;8.50;4.18;;;;;;;10.90;100.00;100473.88;5009883;28;20061;-62
2023/07/27 05:45:31;;;;;;;12.30;3.75;;;;;;;10.96;100.00;100472.34;5010548;28;20466;-60
2023/07/27 05:47:58;;;;;;;10.10;3.90;;;;;;;11.04;100.00;100475.03;5010022;28;20425;-61
2023/07/27 05:50:25;;;;;;;8.05;4.15;;;;;;;11.18;100.00;100474.34;5010151;28;20046;-61
2023/07/27 05:52:51;;;;;;;8.68;4.18;;;;;;;11.25;100.00;100469.13;5010005;28;20053;-61
2023/07/27 05:55:18;;;;;;;8.82;3.70;;;;;;;11.35;100.00;100471.66;5010169;28;20470;-60
2023/07/27 05:57:44;;;;;;;7.93;3.60;;;;;;;11.39;100.00;100473.81;5008305;28;20099;-61
2023/07/27 06:00:11;;;;;;;6.97;3.50;;;;;;;11.45;100.00;100475.81;5009632;28;20061;-61
2023/07/27 06:02:38;;;;;;;6.93;3.72;;;;;;;11.63;100.00;100464.00;5009836;28;20126;-64
2023/07/27 06:05:05;;;;;;;10.35;3.95;;;;;;;11.81;100.00;100463.78;5008642;28;20410;-62
2023/07/27 06:07:32;;;;;;;6.13;3.85;;;;;;;11.90;100.00;100466.28;5009702;28;20473;-62
2023/07/27 06:09:59;;;;;;;7.63;3.50;;;;;;;12.08;100.00;100465.19;5025289;28;20445;-61
2023/07/27 06:12:25;;;;;;;9.75;3.78;;;;;;;12.11;100.00;100457.59;5028731;28;20449;-63
2023/07/27 06:14:52;;;;;;;6.38;4.13;;;;;;;12.20;100.00;100458.38;5028641;28;20095;-63
2023/07/27 06:17:18;;;;;;;8.77;3.85;;;;;;;12.23;100.00;100447.25;5029758;28;20065;-60
2023/07/27 06:19:45;;;;;;;6.03;3.50;;;;;;;12.30;100.00;100456.28;5043640;28;20045;-61
2023/07/27 06:22:11;;;;;;;4.75;3.80;;;;;;;12.47;100.00;100456.19;5049230;28;20080;-62
2023/07/27 06:24:38;;;;;;;13.18;4.43;;;;;;;12.54;100.00;100457.16;5049305;28;20102;-64
2023/07/27 06:27:05;;;;;;;7.82;4.00;;;;;;;12.60;100.00;100451.06;5049298;28;20055;-64
2023/07/27 06:29:32;;;;;;;7.70;4.22;;;;;;;12.69;100.00;100459.88;5049233;28;20099;-63
2023/07/27 06:31:58;;;;;;;8.30;3.78;;;;;;;12.69;100.00;100454.50;5048151;28;20060;-61
2023/07/27 06:34:26;;;;;;;7.72;4.20;;;;;;;12.80;100.00;100454.97;5049175;28;20110;-63
2023/07/27 06:36:53;;;;;;;7.30;3.85;;;;;;;12.84;100.00;100458.97;5046741;28;20141;-63
2023/07/27 06:39:19;;;;;;;6.22;3.45;;;;;;;12.92;100.00;100458.03;5049240;28;20053;-63
2023/07/27 06:41:45;;;;;;;5.88;3.22;;;;;;;12.99;100.00;100460.84;5049757;28;20068;-62
2023/07/27 06:44:14;;;;;;;6.60;3.72;;;;;;;13.03;100.00;100456.75;5053583;28;20049;-61
2023/07/27 06:46:40;;;;;;;5.00;3.33;;;;;;;13.11;100.00;100446.75;5053287;28;20065;-62
2023/07/27 06:49:07;;;;;;;8.57;3.40;;;;;;;13.26;100.00;100449.47;5052148;28;20415;-62
2023/07/27 06:51:34;;;;;;;4.57;3.35;;;;;;;13.34;100.00;100446.69;5052195;28;20110;-64
2023/07/27 06:54:01;;;;;;;7.45;3.75;;;;;;;13.42;100.00;100455.69;5037565;28;20100;-63
2023/07/27 06:56:28;;;;;;;7.35;3.85;;;;;;;13.53;100.00;100456.09;5013794;28;20167;-63
2023/07/27 06:58:54;;;;;;;9.23;3.33;;;;;;;13.57;100.00;100459.25;5013519;28;20046;-63
2023/07/27 07:01:21;;;;;;;8.18;3.47;;;;;;;13.53;100.00;100457.94;5011078;28;20115;-64
2023/07/27 07:03:47;;;;;;;7.30;3.75;;;;;;;13.72;100.00;100457.34;5011713;28;20569;-61
2023/07/27 07:06:14;;;;;;;6.60;3.30;;;;;;;13.81;100.00;100448.19;5013388;28;20054;-62
2023/07/27 07:08:40;;;;;;;16.00;3.58;;;;;;;13.93;100.00;100443.13;5013508;28;20050;-62
2023/07/27 07:11:08;;;;;;;6.50;3.50;;;;;;;14.17;100.00;100443.81;5013264;28;20103;-63
2023/07/27 07:13:35;;;;;;;5.25;3.55;;;;;;;14.40;100.00;100449.06;5013746;28;20449;-63
2023/07/27 07:16:01;;;;;;;5.20;3.10;;;;;;;14.50;100.00;100449.59;5014090;28;20065;-65
2023/07/27 07:18:28;;;;;;;8.23;3.50;;;;;;;14.68;100.00;100452.66;5012599;28;20041;-64
2023/07/27 07:20:56;;;;;;;7.63;3.20;;;;;;;14.80;100.00;100452.16;5013478;28;20053;-64
2023/07/27 07:23:24;;;;;;;5.63;2.85;;;;;;;15.21;100.00;100445.00;5013192;28;20050;-64
2023/07/27 07:25:51;;;;;;;7.53;3.22;;;;;;;15.36;100.00;100450.31;5012834;28;20042;-63
2023/07/27 07:28:18;;;;;;;5.18;2.90;;;;;;;15.69;100.00;100437.00;5013421;28;20131;-65
2023/07/27 07:30:45;;;;;;;8.10;3.35;;;;;;;16.04;100.00;100442.31;5013597;28;20420;-63
2023/07/27 07:33:11;;;;;;;7.57;3.17;;;;;;;16.36;100.00;100432.63;5013432;28;20107;-67
2023/07/27 07:35:39;;;;;;;6.30;2.90;;;;;;;16.84;100.00;100432.50;5013401;28;20046;-62
2023/07/27 07:38:06;;;;;;;5.63;2.83;;;;;;;16.73;100.00;100435.00;5013209;28;20093;-63
2023/07/27 07:40:33;;;;;;;6.50;2.55;;;;;;;16.46;100.00;100425.97;5013811;28;20057;-64
2023/07/27 07:43:00;;;;;;;9.23;2.92;;;;;;;16.12;100.00;100431.31;5013336;28;20564;-65
2023/07/27 07:45:26;;;;;;;12.23;3.10;;;;;;;16.03;100.00;100439.84;5013297;28;20041;-64
2023/07/27 07:47:53;;;;;;;6.20;3.10;;;;;;;15.68;100.00;100431.78;5013002;28;20133;-65
2023/07/27 07:50:19;;;;;;;5.60;3.22;;;;;;;15.32;100.00;100431.97;5013122;28;20581;-64
2023/07/27 07:52:46;;;;;;;5.00;3.10;;;;;;;15.32;100.00;100429.25;5013022;28;20068;-62
2023/07/27 07:55:16;;;;;;;7.18;3.17;;;;;;;15.34;100.00;100419.94;5031112;28;20505;-63
2023/07/27 07:57:43;;;;;;;5.03;2.70;;;;;;;15.38;100.00;100418.50;5032900;28;20128;-63
2023/07/27 08:00:09;;;;;;;6.63;3.15;;;;;;;15.23;100.00;100421.31;5032496;28;20056;-62
2023/07/27 08:02:40;;;;;;;4.88;3.13;;;;;;;15.11;100.00;100417.47;5032575;28;20061;-65
2023/07/27 08:05:07;;;;;;;5.65;3.17;;;;;;;15.09;100.00;100432.25;5032442;28;20509;-62
2023/07/27 08:07:33;;;;;;;5.55;3.42;;;;;;;14.93;100.00;100419.84;5032659;28;20107;-62
2023/07/27 08:10:02;;;;;;;9.07;3.60;;;;;;;14.68;100.00;100417.56;5032748;28;20516;-61
2023/07/27 08:12:29;;;;;;;8.05;3.30;;;;;;;14.67;100.00;100418.59;5032521;28;20064;-62
2023/07/27 08:14:55;;;;;;;7.30;3.58;;;;;;;14.55;100.00;100422.81;5032519;28;20386;-63
2023/07/27 08:17:22;;;;;;;6.70;3.35;;;;;;;14.53;100.00;100423.03;5032368;28;20132;-66
2023/07/27 08:19:49;;;;;;;5.82;3.35;;;;;;;14.51;100.00;100421.56;5030971;28;20045;-63
2023/07/27 08:22:16;;;;;;;5.95;3.25;;;;;;;14.51;100.00;100416.16;5032164;28;20417;-62
2023/07/27 08:24:43;;;;;;;6.13;3.22;;;;;;;14.56;100.00;100416.41;5032067;28;20460;-61
2023/07/27 08:27:10;;;;;;;6.10;3.30;;;;;;;14.76;100.00;100412.03;5032091;28;20549;-61
2023/07/27 08:29:37;;;;;;;6.78;3.17;;;;;;;14.84;100.00;100407.53;5032170;28;20045;-63
2023/07/27 08:32:05;;;;;;;6.43;3.65;;;;;;;14.56;100.00;100397.50;5031784;28;20135;-62
2023/07/27 08:34:32;;;;;;;5.93;3.00;;;;;;;14.62;100.00;100385.09;5032442;28;20612;-62
2023/07/27 08:36:58;;;;;;;8.23;3.67;;;;;;;14.60;100.00;100384.44;5032028;28;20103;-61
2023/07/27 08:39:27;;;;;;;8.60;3.85;;;;;;;14.52;100.00;100382.72;5031449;28;20049;-64
2023/07/27 08:41:54;;;;;;;7.65;3.78;;;;;;;14.53;100.00;100379.84;5031184;28;20118;-63
2023/07/27 08:44:21;;;;;;;6.53;3.58;;;;;;;14.66;100.00;100375.56;5031536;28;20053;-63
2023/07/27 08:46:51;;;;;;;8.07;3.42;;;;;;;14.55;100.00;100368.84;5031178;28;20517;-64
2023/07/27 08:49:18;;;;;;;6.25;3.28;;;;;;;14.50;100.00;100363.22;5030901;28;20045;-62
2023/07/27 08:51:46;;;;;;;7.00;3.42;;;;;;;14.40;100.00;100362.69;5031137;28;20049;-61
2023/07/27 08:54:12;;;;;;;8.88;3.60;;;;;;;14.37;100.00;100358.53;5031220;28;20464;-63
2023/07/27 08:56:39;;;;;;;8.23;3.60;;;;;;;14.45;100.00;100360.25;5031437;28;20493;-65
2023/07/27 08:59:06;;;;;;;6.75;4.00;;;;;;;14.39;100.00;100355.63;5031391;28;20103;-63
2023/07/27 09:01:33;;;;;;;4.50;3.33;;;;;;;14.40;100.00;100349.22;5031662;28;20045;-62
2023/07/27 09:04:00;;;;;;;7.18;3.63;;;;;;;14.38;100.00;100344.00;5031392;28;20045;-61
2023/07/27 09:06:39;;;;;;;7.13;3.72;;;;;;;14.38;100.00;100348.56;5030797;28;20057;-63
2023/07/27 09:09:16;;;;;;;8.75;3.88;;;;;;;14.46;100.00;100337.59;5047869;28;20045;-62
2023/07/27 09:11:46;;;;;;;7.82;4.18;;;;;;;14.38;100.00;100338.59;5051079;28;20118;-64
2023/07/27 09:14:18;;;;;;;8.40;4.10;;;;;;;14.30;100.00;100347.66;5051137;28;20068;-62
2023/07/27 09:16:46;;;;;;;10.10;4.20;;;;;;;14.36;100.00;100345.19;5050879;28;20514;-62
2023/07/27 09:19:18;;;;;;;5.18;3.38;;;;;;;14.39;100.00;100339.41;5050841;28;20076;-63
2023/07/27 09:21:47;;;;;;;7.93;4.10;;;;;;;14.34;100.00;100333.78;5051017;28;20527;-62
2023/07/27 09:24:16;;;;;;;8.63;4.15;;;;;;;14.44;100.00;100331.59;5050594;28;20501;-62
2023/07/27 09:26:45;;;;;;;9.20;4.22;;;;;;;14.64;100.00;100326.34;5050711;28;20052;-62
2023/07/27 09:29:16;;;;;;;5.53;3.80;;;;;;;14.54;100.00;100315.88;5050537;28;20048;-64
2023/07/27 09:31:50;;;;;;;9.85;4.38;;;;;;;14.72;100.00;100324.34;5050771;28;20048;-62
2023/07/27 09:34:20;;;;;;;7.00;3.40;;;;;;;14.68;100.00;100324.91;5050573;28;20055;-63
2023/07/27 09:36:48;;;;;;;7.80;3.63;;;;;;;14.58;100.00;100319.03;5050482;28;20492;-64
2023/07/27 09:39:15;;;;;;;5.18;3.63;;;;;;;14.54;100.00;100324.00;5049325;28;20090;-62
2023/07/27 09:41:43;;;;;;;5.43;3.30;;;;;;;14.69;100.00;100330.13;5050562;28;20182;-62
2023/07/27 09:44:17;;;;;;;7.72;3.47;;;;;;;14.80;100.00;100325.22;5050332;28;20048;-61
2023/07/27 09:46:44;;;;;;;9.23;3.30;;;;;;;14.84;100.00;100321.09;5050548;28;20065;-62
2023/07/27 09:49:13;;;;;;;13.30;3.95;;;;;;;15.21;100.00;100312.59;5050574;28;20049;-61
2023/07/27 09:51:39;;;;;;;4.13;3.00;;;;;;;15.18;100.00;100304.03;5050469;28;20409;-62
2023/07/27 09:54:06;;;;;;;6.05;3.85;;;;;;;15.09;100.00;100300.69;5050022;28;20463;-62
2023/07/27 09:56:33;;;;;;;8.30;3.65;;;;;;;15.20;100.00;100308.22;5050550;28;20459;-62
2023/07/27 09:59:01;;;;;;;6.85;3.63;;;;;;;15.71;100.00;100307.81;5050142;28;20071;-65
2023/07/27 10:01:27;;;;;;;5.20;3.17;;;;;;;16.16;100.00;100304.56;5050247;28;20107;-64
2023/07/27 10:04:00;;;;;;;5.57;3.40;;;;;;;16.12;100.00;100292.47;5050275;28;20053;-64
2023/07/27 10:06:28;;;;;;;6.97;3.30;;;;;;;16.11;100.00;100297.06;5050254;28;20110;-62
2023/07/27 10:08:55;;;;;;;8.95;3.42;;;;;;;16.09;100.00;100295.59;5049819;28;20048;-62
2023/07/27 10:11:30;;;;;;;9.20;3.80;;;;;;;16.21;100.00;100291.22;5049967;28;20055;-64
2023/07/27 10:14:16;;;;;;;6.85;3.42;;;;;;;16.04;100.00;100290.81;5049961;28;20045;-64
2023/07/27 10:17:08;;;;;;;8.35;3.55;;;;;;;16.05;100.00;100287.06;5049239;28;20397;-65
2023/07/27 10:19:53;;;;;;;11.70;3.08;;;;;;;16.00;100.00;100289.56;5050016;28;20496;-65
2023/07/27 10:22:22;;;;;;;7.35;3.47;;;;;;;15.89;100.00;100282.06;5049952;28;20079;-65
2023/07/27 10:24:54;;;;;;;6.57;3.33;;;;;;;15.81;100.00;100287.63;5049453;28;20053;-65
2023/07/27 10:27:21;;;;;;;10.30;2.92;;;;;;;16.02;100.00;100283.94;5049840;28;20122;-64
2023/07/27 10:29:52;;;;;;;4.05;3.25;;;;;;;15.94;100.00;100276.84;5049517;28;20048;-63
2023/07/27 10:32:20;;;;;;;7.70;2.92;;;;;;;15.90;100.00;100283.72;5049930;28;20398;-64
2023/07/27 10:34:51;;;;;;;7.53;3.50;;;;;;;15.74;100.00;100284.91;5050039;28;20052;-64
2023/07/27 10:37:18;;;;;;;5.10;2.75;;;;;;;15.75;100.00;100280.38;5049848;28;20148;-65
2023/07/27 10:39:50;;;;;;;8.98;3.22;;;;;;;15.77;100.00;100284.50;5049899;28;20044;-64
2023/07/27 10:42:27;;;;;;;7.13;2.78;;;;;;;15.77;100.00;100278.28;5049895;28;20420;-61
2023/07/27 10:44:56;;;;;;;4.30;2.92;;;;;;;16.00;100.00;100289.56;5049747;28;20083;-63
2023/07/27 10:47:25;;;;;;;8.48;3.33;;;;;;;16.00;100.00;100291.44;5049812;28;20493;-64
2023/07/27 10:49:54;;;;;;;6.70;2.72;;;;;;;16.08;100.00;100291.22;5049584;28;20045;-61
2023/07/27 10:52:34;;;;;;;8.02;2.90;;;;;;;15.93;100.00;100291.44;5049841;28;20130;-64
2023/07/27 10:55:03;;;;;;;4.47;2.72;;;;;;;15.84;100.00;100285.34;5049818;28;20052;-62
2023/07/27 10:57:31;;;;;;;7.10;3.17;;;;;;;15.91;100.00;100286.19;5049790;28;20048;-62
2023/07/27 10:59:59;;;;;;;7.57;2.80;;;;;;;15.98;100.00;100283.50;5049393;28;20475;-63
2023/07/27 11:02:29;;;;;;;13.18;3.30;;;;;;;15.92;100.00;100278.94;5049346;28;20068;-63
2023/07/27 11:04:57;;;;;;;7.38;2.80;;;;;;;15.94;100.00;100274.97;5049109;28;20033;-64
2023/07/27 11:07:29;;;;;;;5.38;3.00;;;;;;;16.00;100.00;100276.03;5049041;28;20045;-64
2023/07/27 11:09:57;;;;;;;5.28;2.72;;;;;;;15.85;100.00;100261.88;5047829;28;20045;-63
2023/07/27 11:12:24;;;;;;;4.88;2.70;;;;;;;15.98;100.00;100274.56;5049493;28;20528;-62
2023/07/27 11:14:52;;;;;;;11.02;3.28;;;;;;;15.88;100.00;100270.41;5049339;28;20463;-62
2023/07/27 11:17:19;;;;;;;7.85;3.13;;;;;;;15.77;100.00;100275.56;5049476;28;20045;-63
2023/07/27 11:19:46;;;;;;;8.43;3.00;;;;;;;15.76;100.00;100265.81;5049429;28;20393;-61
2023/07/27 11:22:15;;;;;;;16.10;3.70;;;;;;;15.87;100.00;100257.91;5049296;28;20489;-62
2023/07/27 11:24:42;;;;;;;5.68;3.17;;;;;;;16.06;100.00;100261.69;5049182;28;20122;-60